Time;durP1;ratioP1;P1;durP2;ratioP2;P2;SDS_P1;SDS_P2;PMS_P1;PMS_P2;Temp;Humidity;BMP_temperature;BMP_pressure;BME280_temperature;BME280_humidity;BME280_pressure;Samples;Min_cycle;Max_cycle;Signal;HPM_P1;HPM_P2
2022/03/24 00:01:45;;;;;;;;;;;9.70;68.30;;;;;;5084042;28;19908;-67
2022/03/24 00:04:10;;;;;;;;;;;9.70;68.40;;;;;;5084397;28;20003;-67
2022/03/24 00:06:36;;;;;;;;;;;9.60;68.40;;;;;;5082249;28;20058;-67
2022/03/24 00:09:02;;;;;;;;;;;9.60;68.40;;;;;;5084260;28;19912;-67
2022/03/24 00:11:27;;;;;;;;;;;9.60;68.50;;;;;;5069166;28;20295;-67
2022/03/24 00:13:53;;;;;;;;;;;9.50;68.40;;;;;;5083893;28;19923;-67
2022/03/24 00:16:19;;;;;;;;;;;9.50;68.50;;;;;;5084788;28;19966;-67
2022/03/24 00:18:45;;;;;;;;;;;9.50;68.60;;;;;;5067390;28;20026;-67
2022/03/24 00:21:11;;;;;;;;;;;9.50;68.60;;;;;;5082716;28;20564;-67
2022/03/24 00:23:36;;;;;;;;;;;9.50;68.50;;;;;;5082087;28;20008;-67
2022/03/24 00:26:02;;;;;;;;;;;9.40;68.50;;;;;;5085398;28;19908;-67
2022/03/24 00:28:27;;;;;;;;;;;9.40;68.60;;;;;;5066748;28;19942;-67
2022/03/24 00:30:53;;;;;;;;;;;9.40;68.70;;;;;;5070323;28;19941;-66
2022/03/24 00:33:18;;;;;;;;;;;9.40;68.70;;;;;;5080580;28;19912;-67
2022/03/24 00:35:44;;;;;;;;;;;9.30;68.80;;;;;;5081505;28;20556;-67
2022/03/24 00:38:09;;;;;;;;;;;9.30;68.70;;;;;;5082703;28;20102;-67
2022/03/24 00:40:35;;;;;;;;;;;9.30;68.70;;;;;;5084052;28;19916;-67
2022/03/24 00:43:01;;;;;;;;;;;9.30;68.80;;;;;;5084785;28;20414;-67
2022/03/24 00:45:27;;;;;;;;;;;9.30;68.80;;;;;;5083296;28;19950;-67
2022/03/24 00:47:52;;;;;;;;;;;9.20;68.80;;;;;;5081918;28;20573;-67
2022/03/24 00:50:18;;;;;;;;;;;9.20;68.80;;;;;;5083736;28;19919;-67
2022/03/24 00:52:45;;;;;;;;;;;9.20;68.80;;;;;;5083364;28;20025;-67
2022/03/24 00:55:12;;;;;;;;;;;9.20;68.80;;;;;;5083501;28;19924;-67
2022/03/24 00:57:39;;;;;;;;;;;9.10;68.90;;;;;;5074776;28;19912;-67
2022/03/24 01:00:05;;;;;;;;;;;9.10;68.90;;;;;;5058171;28;20430;-67
2022/03/24 01:02:30;;;;;;;;;;;9.10;68.90;;;;;;5080340;28;20233;-67
2022/03/24 01:04:56;;;;;;;;;;;9.10;68.90;;;;;;5082204;28;19916;-67
2022/03/24 01:07:22;;;;;;;;;;;9.00;68.90;;;;;;5083567;28;19912;-67
2022/03/24 01:09:47;;;;;;;;;;;9.00;68.90;;;;;;5078403;28;19938;-67
2022/03/24 01:12:13;;;;;;;;;;;9.00;68.90;;;;;;5064480;28;20557;-67
2022/03/24 01:14:39;;;;;;;;;;;9.00;68.90;;;;;;5083832;28;19934;-67
2022/03/24 01:17:05;;;;;;;;;;;9.00;68.90;;;;;;5082534;28;19912;-67
2022/03/24 01:19:31;;;;;;;;;;;8.90;68.90;;;;;;5084616;28;19915;-67
2022/03/24 01:21:56;;;;;;;;;;;8.90;68.90;;;;;;5084100;28;19912;-67
2022/03/24 01:24:22;;;;;;;;;;;8.90;68.90;;;;;;5072696;28;19916;-67
2022/03/24 01:26:47;;;;;;;;;;;8.90;69.00;;;;;;5081381;28;19958;-67
2022/03/24 01:29:13;;;;;;;;;;;8.90;69.00;;;;;;5081270;28;19974;-67
2022/03/24 01:31:42;;;;;;;;;;;8.90;69.00;;;;;;5081000;28;20015;-66
2022/03/24 01:34:09;;;;;;;;;;;8.80;69.10;;;;;;5082135;28;19952;-67
2022/03/24 01:36:35;;;;;;;;;;;8.80;69.10;;;;;;5065724;28;19922;-67
2022/03/24 01:39:00;;;;;;;;;;;8.80;69.00;;;;;;5080155;28;19908;-67
2022/03/24 01:41:26;;;;;;;;;;;8.80;69.20;;;;;;5082753;28;19916;-67
2022/03/24 01:43:51;;;;;;;;;;;8.70;69.10;;;;;;5083285;28;20265;-67
2022/03/24 01:46:21;;;;;;;;;;;8.70;69.10;;;;;;5083660;28;20505;-67
2022/03/24 01:48:47;;;;;;;;;;;8.70;69.20;;;;;;5083257;28;19947;-67
2022/03/24 01:51:13;;;;;;;;;;;8.70;69.10;;;;;;5078891;28;19927;-67
2022/03/24 01:53:39;;;;;;;;;;;8.60;69.10;;;;;;5079672;28;19912;-67
2022/03/24 01:56:04;;;;;;;;;;;8.70;69.20;;;;;;5081880;28;19916;-67
2022/03/24 01:58:30;;;;;;;;;;;8.60;69.30;;;;;;5086803;28;19922;-67
2022/03/24 02:01:00;;;;;;;;;;;8.60;69.30;;;;;;5087640;28;20341;-67
2022/03/24 02:03:26;;;;;;;;;;;8.60;69.20;;;;;;5069666;28;19916;-67
2022/03/24 02:05:51;;;;;;;;;;;8.60;69.20;;;;;;5085432;28;19908;-67
2022/03/24 02:08:17;;;;;;;;;;;8.60;69.20;;;;;;5085730;28;19915;-67
2022/03/24 02:10:42;;;;;;;;;;;8.50;69.20;;;;;;5086803;28;19923;-67
2022/03/24 02:13:09;;;;;;;;;;;8.50;69.30;;;;;;5085337;28;20397;-67
2022/03/24 02:15:34;;;;;;;;;;;8.50;69.30;;;;;;5085510;28;19923;-67
2022/03/24 02:18:00;;;;;;;;;;;8.50;69.90;;;;;;5084572;28;19935;-67
2022/03/24 02:20:28;;;;;;;;;;;8.50;69.30;;;;;;5068472;28;19923;-67
2022/03/24 02:22:53;;;;;;;;;;;8.50;69.30;;;;;;5085929;28;20006;-67
2022/03/24 02:25:19;;;;;;;;;;;8.40;69.30;;;;;;5077049;28;19912;-67
2022/03/24 02:27:47;;;;;;;;;;;8.40;69.30;;;;;;5086939;28;19912;-67
2022/03/24 02:30:12;;;;;;;;;;;8.40;69.30;;;;;;5068156;28;19912;-67
2022/03/24 02:32:38;;;;;;;;;;;8.40;69.40;;;;;;5070865;28;19916;-67
2022/03/24 02:35:04;;;;;;;;;;;8.40;69.40;;;;;;5086929;28;19916;-67
2022/03/24 02:37:30;;;;;;;;;;;8.30;69.30;;;;;;5085258;28;19912;-67
2022/03/24 02:39:57;;;;;;;;;;;8.30;69.40;;;;;;5083992;28;20299;-67
2022/03/24 02:42:23;;;;;;;;;;;8.30;69.40;;;;;;5084307;28;20061;-67
2022/03/24 02:44:50;;;;;;;;;;;8.30;69.40;;;;;;5085371;28;19912;-67
2022/03/24 02:47:16;;;;;;;;;;;8.30;69.40;;;;;;5086125;28;19916;-67
2022/03/24 02:49:42;;;;;;;;;;;8.20;69.40;;;;;;5068999;28;20045;-67
2022/03/24 02:52:08;;;;;;;;;;;8.20;69.30;;;;;;5069391;28;19923;-67
2022/03/24 02:54:34;;;;;;;;;;;8.20;69.40;;;;;;5081624;28;19924;-67
2022/03/24 02:56:59;;;;;;;;;;;8.20;69.50;;;;;;5083291;28;19919;-67
2022/03/24 02:59:25;;;;;;;;;;;8.20;69.50;;;;;;5088158;28;20659;-67
2022/03/24 03:01:53;;;;;;;;;;;8.20;69.40;;;;;;5083139;28;19912;-67
2022/03/24 03:04:19;;;;;;;;;;;8.20;69.40;;;;;;5067324;28;19916;-67
2022/03/24 03:06:45;;;;;;;;;;;8.10;69.40;;;;;;5085398;28;19923;-67
2022/03/24 03:09:14;;;;;;;;;;;8.10;69.40;;;;;;5084838;28;19962;-67
2022/03/24 03:11:40;;;;;;;;;;;8.10;69.40;;;;;;5084481;28;19912;-67
2022/03/24 03:14:05;;;;;;;;;;;8.10;69.40;;;;;;5086060;28;20375;-67
2022/03/24 03:16:31;;;;;;;;;;;8.10;69.40;;;;;;5082608;28;19913;-67
2022/03/24 03:18:57;;;;;;;;;;;8.10;69.40;;;;;;5084953;28;19919;-67
2022/03/24 03:21:23;;;;;;;;;;;8.00;69.40;;;;;;5084214;28;19927;-67
2022/03/24 03:23:48;;;;;;;;;;;8.00;69.40;;;;;;5082395;28;19908;-67
2022/03/24 03:26:17;;;;;;;;;;;8.00;69.40;;;;;;5084290;28;20058;-67
2022/03/24 03:28:44;;;;;;;;;;;8.00;69.50;;;;;;5086336;28;19916;-67
2022/03/24 03:31:10;;;;;;;;;;;8.00;69.40;;;;;;5084389;28;19916;-67
2022/03/24 03:33:36;;;;;;;;;;;8.00;69.50;;;;;;5082315;28;19999;-67
2022/03/24 03:36:03;;;;;;;;;;;7.90;69.50;;;;;;5067602;28;20432;-67
2022/03/24 03:38:29;;;;;;;;;;;8.00;69.50;;;;;;5081928;28;19975;-67
2022/03/24 03:40:55;;;;;;;;;;;7.90;69.50;;;;;;5083505;28;19916;-67
2022/03/24 03:43:21;;;;;;;;;;;7.90;69.50;;;;;;5081840;28;19969;-67
2022/03/24 03:45:46;;;;;;;;;;;7.90;69.50;;;;;;5082102;28;19916;-67
2022/03/24 03:48:13;;;;;;;;;;;7.90;69.50;;;;;;5073044;28;19908;-67
2022/03/24 03:50:41;;;;;;;;;;;7.90;69.50;;;;;;5085737;28;19912;-67
2022/03/24 03:53:08;;;;;;;;;;;7.90;69.60;;;;;;5085596;28;19984;-67
2022/03/24 03:55:34;;;;;;;;;;;7.80;69.60;;;;;;5083607;28;19962;-67
2022/03/24 03:57:59;;;;;;;;;;;7.80;69.60;;;;;;5084532;28;19959;-67
2022/03/24 04:03:09;;;;;;;;;;;7.80;69.70;;;;;;5083147;28;20460;-67
2022/03/24 04:05:34;;;;;;;;;;;7.80;69.70;;;;;;5082862;28;19948;-67
2022/03/24 04:08:03;;;;;;;;;;;7.80;69.70;;;;;;5080749;28;19909;-67
2022/03/24 04:10:30;;;;;;;;;;;7.70;69.60;;;;;;5080557;28;19927;-67
2022/03/24 04:12:56;;;;;;;;;;;7.70;69.70;;;;;;5082671;28;19992;-67
2022/03/24 04:15:22;;;;;;;;;;;7.70;69.70;;;;;;5084416;28;20003;-67
2022/03/24 04:17:48;;;;;;;;;;;7.70;69.70;;;;;;5079173;28;19908;-67
2022/03/24 04:20:14;;;;;;;;;;;7.70;69.70;;;;;;5066109;28;19917;-67
2022/03/24 04:22:40;;;;;;;;;;;7.70;69.80;;;;;;5084493;28;20253;-67
2022/03/24 04:25:05;;;;;;;;;;;7.70;69.80;;;;;;5083387;28;19915;-67
2022/03/24 04:27:31;;;;;;;;;;;7.60;69.70;;;;;;5083343;28;19958;-67
2022/03/24 04:29:57;;;;;;;;;;;7.60;69.80;;;;;;5065512;28;20384;-67
2022/03/24 04:32:22;;;;;;;;;;;7.60;69.80;;;;;;5081090;28;20351;-67
2022/03/24 04:34:48;;;;;;;;;;;7.60;69.80;;;;;;5083405;28;19938;-67
2022/03/24 04:37:15;;;;;;;;;;;7.60;69.80;;;;;;5081811;28;19916;-67
2022/03/24 04:39:40;;;;;;;;;;;7.60;69.80;;;;;;5083509;28;19912;-67
2022/03/24 04:42:06;;;;;;;;;;;7.60;69.80;;;;;;5083187;28;19919;-67
2022/03/24 04:44:32;;;;;;;;;;;7.50;69.80;;;;;;5078388;28;19916;-67
2022/03/24 04:46:58;;;;;;;;;;;7.50;69.90;;;;;;5080408;28;20005;-67
2022/03/24 04:49:23;;;;;;;;;;;7.50;69.90;;;;;;5081321;28;19912;-67
2022/03/24 04:51:49;;;;;;;;;;;7.50;69.90;;;;;;5083189;28;19961;-67
2022/03/24 04:54:14;;;;;;;;;;;7.50;69.90;;;;;;5071022;28;19923;-67
2022/03/24 04:56:40;;;;;;;;;;;7.50;70.00;;;;;;5082973;28;19914;-67
2022/03/24 04:59:05;;;;;;;;;;;7.40;69.90;;;;;;5083446;28;19916;-67
2022/03/24 05:01:31;;;;;;;;;;;7.40;69.90;;;;;;5084660;28;19916;-67
2022/03/24 05:03:57;;;;;;;;;;;7.40;70.00;;;;;;5080615;28;19977;-67
2022/03/24 05:06:23;;;;;;;;;;;7.40;69.90;;;;;;5065406;28;19908;-67
2022/03/24 05:08:50;;;;;;;;;;;7.40;70.00;;;;;;5083149;28;19920;-67
2022/03/24 05:11:15;;;;;;;;;;;7.40;70.00;;;;;;5077541;28;19915;-67
2022/03/24 05:13:41;;;;;;;;;;;7.40;70.00;;;;;;5083369;28;20006;-67
2022/03/24 05:16:06;;;;;;;;;;;7.30;70.00;;;;;;5083205;28;19916;-67
2022/03/24 05:18:32;;;;;;;;;;;7.40;70.10;;;;;;5082606;28;19953;-67
2022/03/24 05:20:57;;;;;;;;;;;7.30;70.00;;;;;;5083889;28;19999;-67
2022/03/24 05:23:23;;;;;;;;;;;7.30;70.00;;;;;;5082343;28;20003;-67
2022/03/24 05:25:48;;;;;;;;;;;7.30;70.00;;;;;;5082994;28;19911;-67
2022/03/24 05:28:15;;;;;;;;;;;7.30;70.00;;;;;;5083584;28;19915;-67
2022/03/24 05:30:40;;;;;;;;;;;7.30;70.00;;;;;;5082240;28;19915;-67
2022/03/24 05:33:05;;;;;;;;;;;7.30;70.10;;;;;;5085366;28;19908;-67
2022/03/24 05:35:35;;;;;;;;;;;7.30;70.10;;;;;;5087728;28;20034;-67
2022/03/24 05:38:04;;;;;;;;;;;7.20;70.00;;;;;;5066092;28;19908;-67
2022/03/24 05:40:30;;;;;;;;;;;7.20;70.00;;;;;;5084393;28;19912;-67
2022/03/24 05:42:56;;;;;;;;;;;7.20;70.00;;;;;;5085907;28;19935;-67
2022/03/24 05:45:21;;;;;;;;;;;7.20;70.10;;;;;;5088317;28;20014;-67
2022/03/24 05:47:47;;;;;;;;;;;7.20;70.10;;;;;;5086864;28;19912;-67
2022/03/24 05:50:13;;;;;;;;;;;7.20;70.00;;;;;;5085479;28;19915;-67
2022/03/24 05:52:39;;;;;;;;;;;7.20;70.10;;;;;;5084858;28;20007;-67
2022/03/24 05:55:05;;;;;;;;;;;7.20;70.10;;;;;;5071370;28;20065;-67
2022/03/24 05:57:31;;;;;;;;;;;7.20;70.10;;;;;;5089158;28;20443;-67
2022/03/24 05:59:58;;;;;;;;;;;7.20;70.10;;;;;;5085512;28;19927;-67
2022/03/24 06:02:24;;;;;;;;;;;7.20;70.10;;;;;;5086160;28;19912;-67
2022/03/24 06:04:50;;;;;;;;;;;7.20;70.00;;;;;;5083062;28;19923;-67
2022/03/24 06:07:17;;;;;;;;;;;7.10;70.00;;;;;;5072425;28;19995;-67
2022/03/24 06:09:42;;;;;;;;;;;7.10;70.00;;;;;;5085984;28;19927;-67
2022/03/24 06:12:13;;;;;;;;;;;7.10;70.10;;;;;;5085385;28;19912;-67
2022/03/24 06:14:40;;;;;;;;;;;7.10;70.00;;;;;;5081596;28;20003;-67
2022/03/24 06:17:06;;;;;;;;;;;7.10;70.10;;;;;;5083773;28;19948;-67
2022/03/24 06:19:32;;;;;;;;;;;7.10;70.10;;;;;;5072751;28;19978;-67
2022/03/24 06:21:57;;;;;;;;;;;7.10;70.10;;;;;;5068259;28;19912;-67
2022/03/24 06:24:23;;;;;;;;;;;7.10;70.00;;;;;;5085711;28;19922;-67
2022/03/24 06:26:49;;;;;;;;;;;7.10;70.10;;;;;;5085256;28;20337;-67
2022/03/24 06:29:14;;;;;;;;;;;7.10;70.70;;;;;;5084067;28;19912;-67
2022/03/24 06:31:41;;;;;;;;;;;7.10;70.00;;;;;;5082518;28;20338;-67
2022/03/24 06:34:06;;;;;;;;;;;7.10;70.10;;;;;;5084597;28;19908;-67
2022/03/24 06:36:32;;;;;;;;;;;7.10;70.00;;;;;;5082662;28;19955;-67
2022/03/24 06:38:57;;;;;;;;;;;7.10;70.10;;;;;;5085046;28;19989;-67
2022/03/24 06:41:23;;;;;;;;;;;7.10;70.00;;;;;;5084131;28;19916;-67
2022/03/24 06:43:49;;;;;;;;;;;7.10;70.00;;;;;;5085945;28;19994;-67
2022/03/24 06:46:14;;;;;;;;;;;7.20;70.10;;;;;;5084369;28;20438;-67
2022/03/24 06:48:40;;;;;;;;;;;7.20;70.00;;;;;;5084099;28;20002;-67
2022/03/24 06:51:06;;;;;;;;;;;7.20;70.00;;;;;;5079962;28;20022;-67
2022/03/24 06:53:32;;;;;;;;;;;7.20;70.00;;;;;;5079110;28;20406;-67
2022/03/24 06:55:57;;;;;;;;;;;7.20;70.00;;;;;;5085806;28;19951;-67
2022/03/24 06:58:23;;;;;;;;;;;7.20;70.00;;;;;;5084310;28;20322;-67
2022/03/24 07:00:49;;;;;;;;;;;7.20;70.00;;;;;;5083700;28;20610;-67
2022/03/24 07:03:14;;;;;;;;;;;7.30;70.10;;;;;;5066261;28;20497;-67
2022/03/24 07:05:40;;;;;;;;;;;7.30;70.10;;;;;;5082946;28;20562;-67
2022/03/24 07:08:05;;;;;;;;;;;7.30;70.10;;;;;;5083348;28;19916;-67
2022/03/24 07:10:31;;;;;;;;;;;7.30;70.10;;;;;;5084503;28;19908;-67
2022/03/24 07:12:57;;;;;;;;;;;7.30;70.00;;;;;;5085002;28;19919;-67
2022/03/24 07:15:23;;;;;;;;;;;7.30;70.00;;;;;;5084051;28;19912;-67
2022/03/24 07:17:48;;;;;;;;;;;7.30;69.90;;;;;;5082950;28;19960;-67
2022/03/24 07:20:14;;;;;;;;;;;7.30;69.80;;;;;;5084287;28;19938;-67
2022/03/24 07:22:39;;;;;;;;;;;7.40;70.00;;;;;;5063964;28;19912;-67
2022/03/24 07:25:06;;;;;;;;;;;7.40;70.00;;;;;;5083728;28;19919;-67
2022/03/24 07:27:32;;;;;;;;;;;7.40;70.00;;;;;;5084084;28;19909;-67
2022/03/24 07:29:57;;;;;;;;;;;7.40;69.80;;;;;;5082985;28;19908;-67
2022/03/24 07:32:22;;;;;;;;;;;7.40;69.80;;;;;;5083361;28;19969;-67
2022/03/24 07:34:48;;;;;;;;;;;7.50;69.80;;;;;;5083685;28;20046;-67
2022/03/24 07:37:14;;;;;;;;;;;7.50;69.70;;;;;;5084248;28;20545;-67
2022/03/24 07:39:39;;;;;;;;;;;7.50;69.60;;;;;;5082777;28;19912;-67
2022/03/24 07:42:05;;;;;;;;;;;7.60;69.50;;;;;;5081012;28;19920;-66
2022/03/24 07:44:31;;;;;;;;;;;7.60;69.40;;;;;;5080080;28;20319;-66
2022/03/24 07:46:56;;;;;;;;;;;7.70;69.40;;;;;;5080229;28;19912;-66
2022/03/24 07:49:22;;;;;;;;;;;7.70;69.20;;;;;;5082057;28;20002;-66
2022/03/24 07:51:47;;;;;;;;;;;7.80;69.20;;;;;;5083033;28;19916;-66
2022/03/24 07:54:13;;;;;;;;;;;7.90;69.00;;;;;;5059801;28;20391;-66
2022/03/24 07:56:38;;;;;;;;;;;7.90;68.90;;;;;;5067841;28;19916;-66
2022/03/24 07:59:05;;;;;;;;;;;8.00;68.70;;;;;;5082387;28;20027;-66
2022/03/24 08:01:34;;;;;;;;;;;8.10;68.60;;;;;;5064683;28;19919;-66
2022/03/24 08:04:01;;;;;;;;;;;8.10;68.60;;;;;;5079418;28;19912;-66
2022/03/24 08:06:28;;;;;;;;;;;8.20;68.50;;;;;;5083482;28;19912;-66
2022/03/24 08:08:54;;;;;;;;;;;8.30;68.30;;;;;;5083698;28;19916;-66
2022/03/24 08:11:19;;;;;;;;;;;8.40;68.20;;;;;;5066435;28;20774;-66
2022/03/24 08:13:47;;;;;;;;;;;8.50;68.50;;;;;;5082409;28;19912;-66
2022/03/24 08:16:14;;;;;;;;;;;8.60;68.10;;;;;;5081636;28;19916;-66
2022/03/24 08:18:39;;;;;;;;;;;8.70;67.90;;;;;;5083119;28;19912;-67
2022/03/24 08:21:05;;;;;;;;;;;8.70;67.80;;;;;;5082335;28;19950;-66
2022/03/24 08:23:31;;;;;;;;;;;8.80;67.70;;;;;;5080729;28;19920;-66
2022/03/24 08:25:56;;;;;;;;;;;9.00;67.80;;;;;;5075977;28;19979;-66
2022/03/24 08:28:22;;;;;;;;;;;9.00;66.90;;;;;;5083461;28;19908;-66
2022/03/24 08:30:47;;;;;;;;;;;9.10;66.60;;;;;;5084889;28;19942;-66
2022/03/24 08:33:13;;;;;;;;;;;9.20;66.30;;;;;;5085689;28;20010;-66
2022/03/24 08:35:40;;;;;;;;;;;9.20;66.10;;;;;;5079860;28;19917;-66
2022/03/24 08:38:06;;;;;;;;;;;9.30;66.10;;;;;;5079439;28;19983;-66
2022/03/24 08:40:31;;;;;;;;;;;9.40;66.10;;;;;;5080374;28;19913;-66
2022/03/24 08:42:57;;;;;;;;;;;9.40;65.60;;;;;;5083771;28;19910;-66
2022/03/24 08:45:22;;;;;;;;;;;9.50;65.50;;;;;;5080887;28;20007;-66
2022/03/24 08:47:48;;;;;;;;;;;9.50;65.80;;;;;;5082183;28;20547;-66
2022/03/24 08:50:14;;;;;;;;;;;9.60;65.40;;;;;;5071660;28;20020;-66
2022/03/24 08:52:42;;;;;;;;;;;9.70;65.20;;;;;;5082706;28;19920;-66
2022/03/24 08:55:08;;;;;;;;;;;9.80;65.60;;;;;;5080531;28;20019;-66
2022/03/24 08:57:34;;;;;;;;;;;9.80;65.10;;;;;;5082348;28;19912;-66
2022/03/24 09:00:01;;;;;;;;;;;9.90;65.20;;;;;;5082390;28;19920;-66
2022/03/24 09:02:27;;;;;;;;;;;9.90;65.00;;;;;;5080687;28;19918;-66
2022/03/24 09:04:53;;;;;;;;;;;9.90;65.00;;;;;;5065971;28;20762;-66
2022/03/24 09:07:18;;;;;;;;;;;10.00;65.20;;;;;;5086067;28;19931;-66
2022/03/24 09:09:44;;;;;;;;;;;10.00;65.70;;;;;;5087725;28;19916;-66
2022/03/24 09:12:10;;;;;;;;;;;10.00;64.90;;;;;;5082259;28;19944;-66
2022/03/24 09:14:36;;;;;;;;;;;10.10;65.00;;;;;;5084419;28;19927;-66
2022/03/24 09:17:02;;;;;;;;;;;10.10;64.90;;;;;;5085728;28;19938;-66
2022/03/24 09:19:27;;;;;;;;;;;10.10;64.90;;;;;;5087599;28;19912;-67
2022/03/24 09:21:53;;;;;;;;;;;10.20;64.90;;;;;;5082448;28;19923;-66
2022/03/24 09:24:18;;;;;;;;;;;10.20;64.90;;;;;;5085240;28;20444;-66
2022/03/24 09:26:44;;;;;;;;;;;10.20;64.70;;;;;;5072986;28;19912;-66
2022/03/24 09:29:10;;;;;;;;;;;10.30;65.00;;;;;;5088415;28;20307;-66
2022/03/24 09:31:35;;;;;;;;;;;10.30;64.90;;;;;;5086919;28;19908;-66
2022/03/24 09:34:01;;;;;;;;;;;10.40;64.80;;;;;;5086644;28;19923;-66
2022/03/24 09:36:27;;;;;;;;;;;10.40;64.60;;;;;;5085109;28;19962;-66
2022/03/24 09:38:52;;;;;;;;;;;10.40;64.50;;;;;;5083583;28;19908;-66
2022/03/24 09:41:18;;;;;;;;;;;10.50;64.70;;;;;;5086287;28;20404;-66
2022/03/24 09:43:44;;;;;;;;;;;10.50;64.50;;;;;;5087060;28;20047;-66
2022/03/24 09:46:09;;;;;;;;;;;10.50;64.50;;;;;;5072461;28;20276;-66
2022/03/24 09:48:35;;;;;;;;;;;10.60;64.50;;;;;;5085310;28;20011;-67
2022/03/24 09:51:01;;;;;;;;;;;10.60;64.40;;;;;;5085716;28;20387;-66
2022/03/24 09:53:26;;;;;;;;;;;10.60;64.70;;;;;;5074710;28;19999;-66
2022/03/24 09:55:52;;;;;;;;;;;10.60;64.30;;;;;;5086022;28;19912;-66
2022/03/24 09:58:22;;;;;;;;;;;10.70;64.60;;;;;;5088485;28;19912;-66
2022/03/24 10:00:48;;;;;;;;;;;10.70;64.50;;;;;;5086115;28;19920;-66
2022/03/24 10:03:15;;;;;;;;;;;10.80;64.30;;;;;;5086142;28;20033;-66
2022/03/24 10:05:54;;;;;;;;;;;10.80;64.30;;;;;;5086489;28;20023;-66
2022/03/24 10:08:20;;;;;;;;;;;10.90;64.50;;;;;;5082646;28;20394;-66
2022/03/24 10:10:46;;;;;;;;;;;10.90;64.20;;;;;;5087107;28;19949;-66
2022/03/24 10:13:11;;;;;;;;;;;10.90;64.30;;;;;;5087309;28;19990;-66
2022/03/24 10:15:38;;;;;;;;;;;10.90;64.20;;;;;;5086399;28;19998;-66
2022/03/24 10:18:03;;;;;;;;;;;11.00;64.20;;;;;;5084963;28;19923;-66
2022/03/24 10:20:30;;;;;;;;;;;11.00;64.00;;;;;;5083593;28;19912;-66
2022/03/24 10:22:55;;;;;;;;;;;11.10;63.80;;;;;;5085493;28;19912;-67
2022/03/24 10:25:23;;;;;;;;;;;11.10;63.80;;;;;;5086981;28;19924;-66
2022/03/24 10:28:01;;;;;;;;;;;11.20;63.80;;;;;;5082790;28;19919;-66
2022/03/24 10:30:26;;;;;;;;;;;11.20;63.60;;;;;;5082322;28;20366;-66
2022/03/24 10:32:56;;;;;;;;;;;11.30;63.50;;;;;;5085555;28;20006;-66
2022/03/24 10:35:22;;;;;;;;;;;11.40;63.50;;;;;;5086224;28;19916;-66
2022/03/24 10:37:49;;;;;;;;;;;11.40;63.20;;;;;;5084261;28;19919;-66
2022/03/24 10:40:14;;;;;;;;;;;11.50;63.30;;;;;;5085150;28;19912;-66
2022/03/24 10:42:41;;;;;;;;;;;11.50;63.00;;;;;;5084013;28;19919;-66
2022/03/24 10:45:12;;;;;;;;;;;11.60;63.00;;;;;;5086993;28;20042;-66
2022/03/24 10:47:43;;;;;;;;;;;11.70;62.80;;;;;;5083953;28;20011;-66
2022/03/24 10:50:20;;;;;;;;;;;11.80;62.70;;;;;;5081695;28;19962;-66
2022/03/24 10:52:46;;;;;;;;;;;11.80;62.50;;;;;;5082567;28;21475;-66
2022/03/24 10:55:12;;;;;;;;;;;11.90;62.30;;;;;;5083147;28;19923;-66
2022/03/24 10:57:38;;;;;;;;;;;12.00;62.30;;;;;;5085528;28;19919;-66
2022/03/24 11:00:04;;;;;;;;;;;12.10;62.10;;;;;;5086012;28;20029;-66
2022/03/24 11:02:31;;;;;;;;;;;12.20;62.10;;;;;;5085864;28;20360;-66
2022/03/24 11:05:00;;;;;;;;;;;12.30;61.60;;;;;;5086266;28;19916;-66
2022/03/24 11:07:26;;;;;;;;;;;12.40;61.30;;;;;;5085018;28;19919;-66
2022/03/24 11:09:51;;;;;;;;;;;12.50;61.40;;;;;;5085267;28;20263;-66
2022/03/24 11:12:27;;;;;;;;;;;12.60;61.50;;;;;;5085480;28;19912;-66
2022/03/24 11:14:54;;;;;;;;;;;12.70;61.30;;;;;;5084362;28;19977;-66
2022/03/24 11:17:24;;;;;;;;;;;12.90;60.90;;;;;;5084508;28;19923;-66
2022/03/24 11:19:55;;;;;;;;;;;13.10;61.20;;;;;;5085499;28;19916;-66
2022/03/24 11:22:21;;;;;;;;;;;13.20;60.70;;;;;;5086049;28;19912;-66
2022/03/24 11:24:47;;;;;;;;;;;13.30;61.00;;;;;;5082584;28;20309;-66
2022/03/24 11:27:13;;;;;;;;;;;13.40;61.00;;;;;;5080680;28;19950;-66
2022/03/24 11:29:38;;;;;;;;;;;13.50;60.90;;;;;;5079851;28;19993;-66
2022/03/24 11:32:04;;;;;;;;;;;13.60;60.80;;;;;;5081277;28;20003;-66
2022/03/24 11:34:30;;;;;;;;;;;13.70;60.70;;;;;;5084906;28;20133;-66
2022/03/24 11:36:56;;;;;;;;;;;13.90;60.60;;;;;;5084559;28;19914;-66
2022/03/24 11:39:23;;;;;;;;;;;13.90;60.70;;;;;;5086087;28;19915;-66
2022/03/24 11:41:49;;;;;;;;;;;14.00;60.60;;;;;;5085096;28;19912;-66
2022/03/24 11:44:15;;;;;;;;;;;14.10;60.50;;;;;;5082513;28;19912;-66
2022/03/24 11:46:52;;;;;;;;;;;14.20;60.40;;;;;;5082191;28;20291;-66
2022/03/24 11:49:27;;;;;;;;;;;14.30;60.30;;;;;;5074111;27;19920;-67
2022/03/24 11:51:56;;;;;;;;;;;14.40;60.20;;;;;;5046824;28;19913;-67
2022/03/24 11:54:25;;;;;;;;;;;14.50;60.20;;;;;;5052629;28;20433;-66
2022/03/24 11:57:11;;;;;;;;;;;14.60;60.80;;;;;;5059152;28;19912;-67
2022/03/24 11:59:36;;;;;;;;;;;14.70;60.00;;;;;;5049030;28;19920;-66
2022/03/24 12:02:16;;;;;;;;;;;14.80;60.00;;;;;;5049175;28;19909;-66
2022/03/24 12:04:57;;;;;;;;;;;14.90;60.00;;;;;;5049984;28;19999;-66
2022/03/24 12:07:22;;;;;;;;;;;14.90;60.00;;;;;;5052920;28;19917;-67
2022/03/24 12:10:08;;;;;;;;;;;15.00;60.50;;;;;;5049976;28;20667;-66
2022/03/24 12:12:34;;;;;;;;;;;15.10;60.50;;;;;;5053402;28;19938;-66
2022/03/24 12:15:08;;;;;;;;;;;15.20;60.40;;;;;;5046199;28;20427;-66
2022/03/24 12:17:34;;;;;;;;;;;15.20;60.40;;;;;;5050511;28;20374;-66
2022/03/24 12:20:01;;;;;;;;;;;15.30;60.30;;;;;;5045436;28;20278;-66
2022/03/24 12:22:26;;;;;;;;;;;15.30;60.30;;;;;;5053882;28;19912;-66
2022/03/24 12:24:52;;;;;;;;;;;15.40;60.40;;;;;;5050585;28;19908;-66
2022/03/24 12:27:18;;;;;;;;;;;15.40;60.90;;;;;;5052623;28;19923;-66
2022/03/24 12:30:03;;;;;;;;;;;15.50;60.30;;;;;;5053776;28;19913;-66
2022/03/24 12:32:29;;;;;;;;;;;15.50;60.40;;;;;;5057113;28;19912;-66
2022/03/24 12:34:54;;;;;;;;;;;15.60;60.60;;;;;;5050869;28;19920;-67
2022/03/24 12:37:23;;;;;;;;;;;15.60;60.80;;;;;;5046381;28;19913;-66
2022/03/24 12:40:11;;;;;;;;;;;15.70;60.90;;;;;;5057352;28;20011;-66
2022/03/24 12:42:45;;;;;;;;;;;15.70;61.00;;;;;;5053090;28;19927;-66
2022/03/24 12:45:16;;;;;;;;;;;15.80;61.10;;;;;;5045917;28;19924;-66
2022/03/24 12:47:42;;;;;;;;;;;15.80;60.60;;;;;;5062077;28;20281;-66
2022/03/24 12:50:20;;;;;;;;;;;15.80;60.40;;;;;;5078572;28;19908;-67
2022/03/24 12:52:49;;;;;;;;;;;15.90;60.70;;;;;;5066987;28;19915;-66
2022/03/24 12:55:23;;;;;;;;;;;15.90;60.70;;;;;;5069637;28;19916;-66
2022/03/24 12:57:56;;;;;;;;;;;16.00;60.80;;;;;;5075509;28;19919;-66
2022/03/24 13:00:31;;;;;;;;;;;16.00;60.80;;;;;;5062149;28;19941;-66
2022/03/24 13:02:57;;;;;;;;;;;16.00;60.70;;;;;;5043830;28;20019;-66
2022/03/24 13:05:30;;;;;;;;;;;16.10;60.40;;;;;;5068756;28;19908;-67
2022/03/24 13:07:56;;;;;;;;;;;16.10;60.10;;;;;;5057144;28;19931;-66
2022/03/24 13:10:24;;;;;;;;;;;16.10;60.70;;;;;;5050566;28;19920;-67
2022/03/24 13:12:58;;;;;;;;;;;16.20;60.50;;;;;;5057821;28;19919;-67
2022/03/24 13:15:27;;;;;;;;;;;16.20;60.30;;;;;;5061132;28;19916;-67
2022/03/24 13:18:03;;;;;;;;;;;16.20;60.20;;;;;;5059715;28;19998;-66
2022/03/24 13:20:33;;;;;;;;;;;16.30;60.50;;;;;;5053438;28;19975;-66
2022/03/24 13:23:03;;;;;;;;;;;16.30;60.10;;;;;;5061510;28;19909;-66
2022/03/24 13:25:29;;;;;;;;;;;16.40;59.30;;;;;;5064192;28;20368;-66
2022/03/24 13:27:54;;;;;;;;;;;16.40;59.50;;;;;;5042380;28;20510;-67
2022/03/24 13:30:22;;;;;;;;;;;16.40;58.20;;;;;;5062867;28;19920;-67
2022/03/24 13:32:54;;;;;;;;;;;16.40;59.30;;;;;;5037660;28;19921;-66
2022/03/24 13:35:22;;;;;;;;;;;16.40;59.30;;;;;;5061086;28;20103;-66
2022/03/24 13:37:51;;;;;;;;;;;16.50;59.80;;;;;;5048811;28;19920;-66
2022/03/24 13:40:18;;;;;;;;;;;16.50;60.30;;;;;;5060944;28;19956;-66
2022/03/24 13:42:45;;;;;;;;;;;16.50;59.60;;;;;;5059256;28;20528;-67
2022/03/24 13:45:11;;;;;;;;;;;16.60;59.90;;;;;;5060778;28;20015;-66
2022/03/24 13:47:44;;;;;;;;;;;16.60;60.00;;;;;;5063985;28;20349;-66
2022/03/24 13:50:11;;;;;;;;;;;16.60;59.90;;;;;;5058730;28;19916;-66
2022/03/24 13:52:39;;;;;;;;;;;16.60;59.80;;;;;;5058771;28;20861;-66
2022/03/24 13:55:07;;;;;;;;;;;16.60;59.70;;;;;;5057327;28;19913;-67
2022/03/24 13:57:42;;;;;;;;;;;16.70;60.10;;;;;;5043464;28;20031;-66
2022/03/24 14:00:08;;;;;;;;;;;16.70;60.00;;;;;;5059085;28;19959;-67
2022/03/24 14:02:34;;;;;;;;;;;16.70;59.90;;;;;;5061591;28;20593;-66
2022/03/24 14:05:14;;;;;;;;;;;16.70;57.90;;;;;;5061298;28;19916;-67
2022/03/24 14:07:55;;;;;;;;;;;16.80;59.10;;;;;;5056203;28;19932;-67
2022/03/24 14:10:21;;;;;;;;;;;16.80;58.30;;;;;;5031237;28;19915;-66
2022/03/24 14:12:51;;;;;;;;;;;16.80;57.30;;;;;;5062724;28;19991;-67
2022/03/24 14:15:17;;;;;;;;;;;16.80;57.70;;;;;;5053733;28;20272;-67
2022/03/24 14:17:42;;;;;;;;;;;16.80;58.10;;;;;;5050133;28;19909;-66
2022/03/24 14:20:09;;;;;;;;;;;16.80;57.80;;;;;;5062270;28;19955;-66
2022/03/24 14:22:47;;;;;;;;;;;16.80;58.90;;;;;;5057096;28;19912;-67
2022/03/24 14:25:13;;;;;;;;;;;16.80;58.90;;;;;;5056507;28;20143;-67
2022/03/24 14:27:47;;;;;;;;;;;16.90;59.10;;;;;;5061434;28;20090;-67